Time;durP1;ratioP1;P1;durP2;ratioP2;P2;SDS_P1;SDS_P2;PMS_P1;PMS_P2;Temp;Humidity;BMP_temperature;BMP_pressure;BME280_temperature;BME280_humidity;BME280_pressure;Samples;Min_cycle;Max_cycle;Signal;HPM_P1;HPM_P2
2022/04/13 00:00:47;;;;;;;7.17;3.97;;;;;;;11.97;100.00;95041.25;5094366;28;20245;-59
2022/04/13 00:03:12;;;;;;;8.77;4.73;;;;;;;11.94;100.00;95036.63;5094218;28;20270;-59
2022/04/13 00:05:37;;;;;;;6.17;4.23;;;;;;;11.80;100.00;95031.44;5094703;28;20191;-60
2022/04/13 00:08:06;;;;;;;7.87;4.33;;;;;;;11.69;100.00;95036.34;5097828;28;20180;-61
2022/04/13 00:10:32;;;;;;;7.17;4.60;;;;;;;11.61;100.00;95041.16;5097858;28;20255;-60
2022/04/13 00:12:57;;;;;;;5.97;4.20;;;;;;;11.60;100.00;95033.34;5097479;28;20183;-60
2022/04/13 00:15:23;;;;;;;7.63;4.30;;;;;;;11.58;100.00;95030.25;5097780;28;20217;-60
2022/04/13 00:17:48;;;;;;;7.67;4.93;;;;;;;11.49;100.00;95032.75;5097356;28;20190;-60
2022/04/13 00:20:13;;;;;;;6.07;4.30;;;;;;;11.39;100.00;95033.69;5097499;28;20286;-61
2022/04/13 00:22:39;;;;;;;8.20;4.93;;;;;;;11.42;100.00;95038.34;5097665;28;20207;-61
2022/04/13 00:25:04;;;;;;;8.37;4.87;;;;;;;11.50;99.45;95040.53;5097619;28;20271;-61
2022/04/13 00:27:30;;;;;;;6.43;4.67;;;;;;;11.59;98.73;95032.59;5097397;28;20275;-60
2022/04/13 00:29:55;;;;;;;9.13;4.93;;;;;;;11.51;99.59;95041.31;5097442;28;20180;-58
2022/04/13 00:32:20;;;;;;;7.30;4.57;;;;;;;11.50;100.00;95034.28;5097132;28;20269;-59
2022/04/13 00:34:46;;;;;;;6.63;4.47;;;;;;;11.51;99.79;95036.59;5097395;28;20187;-61
2022/04/13 00:37:11;;;;;;;8.20;4.77;;;;;;;11.49;99.11;95035.50;5097221;28;20230;-59
2022/04/13 00:39:36;;;;;;;7.40;5.17;;;;;;;11.53;99.49;95033.47;5097498;28;20220;-59
2022/04/13 00:42:05;;;;;;;5.60;4.50;;;;;;;11.48;98.96;95031.97;5097482;28;20186;-59
2022/04/13 00:44:30;;;;;;;6.60;4.30;;;;;;;11.31;99.29;95037.75;5096923;28;20208;-58
2022/04/13 00:46:57;;;;;;;6.70;4.90;;;;;;;11.24;99.76;95030.44;5097181;28;20192;-59
2022/04/13 00:49:24;;;;;;;8.17;4.60;;;;;;;11.27;99.57;95034.31;5097058;28;20191;-59
2022/04/13 00:51:50;;;;;;;6.50;4.50;;;;;;;11.21;100.00;95038.69;5096964;28;20182;-58
2022/04/13 00:54:18;;;;;;;6.83;4.37;;;;;;;11.26;98.78;95040.97;5097083;28;20186;-59
2022/04/13 00:56:47;;;;;;;8.93;4.87;;;;;;;11.47;98.44;95041.38;5096916;28;20218;-58
2022/04/13 00:59:14;;;;;;;6.67;4.37;;;;;;;11.21;98.03;95038.69;5096927;28;20184;-60
2022/04/13 01:01:46;;;;;;;6.30;4.20;;;;;;;11.14;99.42;95045.06;5096764;28;20237;-59
2022/04/13 01:04:12;;;;;;;7.03;4.70;;;;;;;11.29;98.00;95048.34;5096827;28;20224;-59
2022/04/13 01:06:39;;;;;;;6.33;4.40;;;;;;;11.32;96.98;95050.22;5096927;28;20239;-59
2022/04/13 01:09:04;;;;;;;6.53;4.40;;;;;;;10.96;99.43;95050.03;5097230;28;20284;-58
2022/04/13 01:11:30;;;;;;;6.57;4.47;;;;;;;10.98;100.00;95052.34;5097045;28;20223;-58
2022/04/13 01:13:56;;;;;;;7.20;4.23;;;;;;;11.01;100.00;95057.78;5096904;28;20184;-58
2022/04/13 01:16:23;;;;;;;6.00;4.63;;;;;;;10.96;100.00;95060.19;5096508;28;20263;-58
2022/04/13 01:18:48;;;;;;;6.03;4.67;;;;;;;10.94;100.00;95057.09;5095975;28;20247;-59
2022/04/13 01:21:16;;;;;;;9.33;4.77;;;;;;;10.80;100.00;95058.06;5096534;28;20620;-59
2022/04/13 01:23:41;;;;;;;7.70;5.10;;;;;;;10.81;100.00;95053.41;5096411;28;20215;-58
2022/04/13 01:26:09;;;;;;;9.27;4.97;;;;;;;10.81;100.00;95064.31;5114859;28;20207;-60
2022/04/13 01:28:34;;;;;;;7.27;4.73;;;;;;;10.71;100.00;95065.25;5096399;28;20190;-62
2022/04/13 01:30:59;;;;;;;8.63;4.63;;;;;;;10.67;100.00;95067.25;5096780;28;20231;-61
2022/04/13 01:33:28;;;;;;;10.23;5.20;;;;;;;10.64;100.00;95065.34;5096838;28;20185;-62
2022/04/13 01:35:53;;;;;;;6.63;4.57;;;;;;;10.61;100.00;95066.16;5114503;28;20180;-62
2022/04/13 01:38:18;;;;;;;7.40;4.67;;;;;;;10.63;100.00;95066.53;5096407;28;20182;-62
2022/04/13 01:40:45;;;;;;;7.00;4.73;;;;;;;10.60;100.00;95065.38;5096324;28;20193;-60
2022/04/13 01:43:10;;;;;;;7.17;4.77;;;;;;;10.47;100.00;95069.06;5096294;28;20214;-59
2022/04/13 01:45:36;;;;;;;6.90;4.70;;;;;;;10.44;100.00;95072.63;5096185;28;20195;-63
2022/04/13 01:48:01;;;;;;;7.17;4.57;;;;;;;10.46;100.00;95065.59;5096194;28;20187;-63
2022/04/13 01:50:26;;;;;;;7.83;5.20;;;;;;;10.43;100.00;95068.34;5095878;28;20277;-63
2022/04/13 01:52:52;;;;;;;7.93;5.10;;;;;;;10.39;100.00;95075.81;5096302;28;20234;-63
2022/04/13 01:55:17;;;;;;;9.10;4.67;;;;;;;10.35;100.00;95072.34;5096075;28;20232;-61
2022/04/13 01:57:43;;;;;;;9.27;4.93;;;;;;;10.32;100.00;95059.53;5096138;28;20238;-61
2022/04/13 02:00:10;;;;;;;10.20;5.20;;;;;;;10.29;100.00;95066.56;5095928;28;20193;-60
2022/04/13 02:02:36;;;;;;;6.47;4.53;;;;;;;10.22;100.00;95068.59;5095841;28;20187;-62
2022/04/13 02:05:02;;;;;;;10.03;5.20;;;;;;;10.18;100.00;95067.88;5096051;28;20445;-61
2022/04/13 02:07:28;;;;;;;8.43;4.93;;;;;;;10.22;100.00;95069.38;5095842;28;20227;-60
2022/04/13 02:09:55;;;;;;;6.83;4.87;;;;;;;10.26;100.00;95061.19;5095875;28;20299;-62
2022/04/13 02:12:20;;;;;;;8.47;5.07;;;;;;;10.19;100.00;95061.25;5095752;28;20221;-61
2022/04/13 02:14:45;;;;;;;10.73;4.93;;;;;;;10.16;100.00;95067.53;5095722;28;20225;-62
2022/04/13 02:17:14;;;;;;;5.60;4.63;;;;;;;10.10;100.00;95064.47;5114070;28;20201;-59
2022/04/13 02:19:40;;;;;;;6.30;4.50;;;;;;;10.11;100.00;95066.00;5095772;28;20191;-61
2022/04/13 02:22:07;;;;;;;7.23;4.53;;;;;;;10.10;100.00;95057.03;5113704;28;20221;-59
2022/04/13 02:24:34;;;;;;;6.47;4.00;;;;;;;10.14;100.00;95055.03;5095310;28;20290;-59
2022/04/13 02:27:00;;;;;;;8.20;5.83;;;;;;;10.11;100.00;95049.66;5095470;28;20198;-60
2022/04/13 02:29:25;;;;;;;7.87;4.50;;;;;;;9.98;100.00;95051.31;5094055;28;20411;-59
2022/04/13 02:31:51;;;;;;;9.47;4.57;;;;;;;9.94;100.00;95050.59;5095239;28;20201;-59
2022/04/13 02:34:17;;;;;;;6.03;4.63;;;;;;;9.90;100.00;95038.94;5113751;28;20178;-59
2022/04/13 02:36:43;;;;;;;8.20;4.53;;;;;;;9.85;100.00;95053.81;5095713;28;20194;-60
2022/04/13 02:39:08;;;;;;;7.53;4.50;;;;;;;9.86;100.00;95049.91;5095628;28;20192;-60
2022/04/13 02:41:34;;;;;;;6.13;4.20;;;;;;;9.79;100.00;95051.94;5095405;28;20293;-59
2022/04/13 02:43:59;;;;;;;6.77;4.17;;;;;;;9.76;100.00;95052.72;5095280;28;20677;-60
2022/04/13 02:46:24;;;;;;;9.50;7.13;;;;;;;9.78;100.00;95051.16;5095392;28;20190;-59
2022/04/13 02:48:50;;;;;;;9.87;5.53;;;;;;;9.74;100.00;95053.16;5095375;28;20618;-59
2022/04/13 02:51:15;;;;;;;8.10;5.77;;;;;;;9.71;100.00;95051.25;5095300;28;20194;-60
2022/04/13 02:53:40;;;;;;;14.53;4.60;;;;;;;9.67;100.00;95050.50;5095229;28;20204;-59
2022/04/13 02:56:06;;;;;;;5.37;3.90;;;;;;;9.61;100.00;95049.41;5095203;28;20180;-59
2022/04/13 02:58:31;;;;;;;5.07;3.73;;;;;;;9.55;100.00;95055.69;5094990;28;20178;-57
2022/04/13 03:00:56;;;;;;;7.27;3.80;;;;;;;9.50;100.00;95058.84;5095006;28;20542;-57
2022/04/13 03:03:22;;;;;;;7.53;3.70;;;;;;;9.50;100.00;95050.66;5094709;28;20387;-57
2022/04/13 03:05:47;;;;;;;4.40;3.80;;;;;;;9.49;100.00;95049.91;5095291;28;20209;-58
2022/04/13 03:08:12;;;;;;;8.57;4.10;;;;;;;9.51;100.00;95055.72;5094993;28;20267;-58
2022/04/13 03:10:38;;;;;;;7.07;4.37;;;;;;;9.49;100.00;95052.63;5095089;28;20213;-58
2022/04/13 03:13:03;;;;;;;6.53;3.97;;;;;;;9.48;100.00;95056.53;5094947;28;20180;-62
2022/04/13 03:15:29;;;;;;;7.07;4.50;;;;;;;9.46;100.00;95050.72;5094598;28;20187;-58
2022/04/13 03:17:54;;;;;;;5.50;4.70;;;;;;;9.45;100.00;95049.19;5094647;28;20189;-58
2022/04/13 03:20:22;;;;;;;7.00;4.20;;;;;;;9.40;100.00;95051.56;5094533;28;20205;-58
2022/04/13 03:22:50;;;;;;;6.70;3.90;;;;;;;9.34;100.00;95040.31;5094764;28;20205;-58
2022/04/13 03:25:15;;;;;;;5.47;4.03;;;;;;;9.31;100.00;95052.03;5094566;28;20352;-58
2022/04/13 03:27:41;;;;;;;7.17;4.17;;;;;;;9.32;100.00;95053.56;5094873;28;20289;-59
2022/04/13 03:30:07;;;;;;;7.77;3.87;;;;;;;9.32;100.00;95052.78;5094956;28;20208;-61
2022/04/13 03:32:39;;;;;;;4.87;3.60;;;;;;;9.42;100.00;95054.63;5094864;28;20188;-59
2022/04/13 03:35:07;;;;;;;14.87;4.10;;;;;;;9.39;100.00;95048.06;5094867;28;20214;-61
2022/04/13 03:37:32;;;;;;;7.87;3.90;;;;;;;9.28;100.00;95049.31;5094605;28;20188;-61
2022/04/13 03:39:58;;;;;;;7.97;3.97;;;;;;;9.52;100.00;95056.50;5094535;28;20197;-61
2022/04/13 03:42:23;;;;;;;6.73;4.40;;;;;;;9.42;100.00;95057.38;5097494;28;20195;-60
2022/04/13 03:44:48;;;;;;;7.57;3.90;;;;;;;9.45;100.00;95051.91;5097982;28;20212;-61
2022/04/13 03:47:14;;;;;;;6.40;4.03;;;;;;;9.36;100.00;95054.31;5098016;28;20188;-60
2022/04/13 03:49:39;;;;;;;4.77;3.90;;;;;;;9.56;100.00;95058.03;5097989;28;20189;-62
2022/04/13 03:52:05;;;;;;;8.77;4.37;;;;;;;9.49;100.00;95063.53;5097853;28;20285;-59
2022/04/13 03:54:30;;;;;;;7.83;4.40;;;;;;;9.35;100.00;95058.22;5098239;28;20185;-59
2022/04/13 03:56:55;;;;;;;6.53;4.07;;;;;;;9.42;100.00;95058.16;5097890;28;20186;-59
2022/04/13 03:59:22;;;;;;;6.33;3.63;;;;;;;9.44;100.00;95065.94;5097964;28;20213;-59
2022/04/13 04:01:47;;;;;;;7.37;3.67;;;;;;;9.30;100.00;95066.06;5097614;28;20599;-58
2022/04/13 04:04:15;;;;;;;6.53;4.33;;;;;;;9.37;100.00;95066.75;5097614;28;20199;-60
2022/04/13 04:06:41;;;;;;;6.60;4.10;;;;;;;9.38;100.00;95062.88;5097745;28;20190;-60
2022/04/13 04:09:07;;;;;;;7.23;5.13;;;;;;;9.38;100.00;95071.03;5097868;28;20181;-59
2022/04/13 04:11:32;;;;;;;9.73;4.53;;;;;;;9.41;100.00;95070.25;5097622;28;20181;-59
2022/04/13 04:13:57;;;;;;;5.77;4.10;;;;;;;9.39;100.00;95080.75;5097326;28;20177;-59
2022/04/13 04:16:22;;;;;;;6.63;4.07;;;;;;;9.40;100.00;95074.13;5097503;28;20189;-59
2022/04/13 04:18:50;;;;;;;6.20;4.20;;;;;;;9.44;100.00;95077.59;5097653;28;20182;-59
2022/04/13 04:21:16;;;;;;;8.63;4.20;;;;;;;9.41;100.00;95083.88;5097055;28;20560;-56
2022/04/13 04:23:42;;;;;;;7.50;4.17;;;;;;;9.29;100.00;95081.63;5097256;28;20209;-53
2022/04/13 04:26:08;;;;;;;5.97;4.20;;;;;;;9.34;100.00;95083.13;5097286;28;20214;-57
2022/04/13 04:28:33;;;;;;;7.23;3.93;;;;;;;9.32;100.00;95091.72;5097475;28;20189;-59
2022/04/13 04:30:59;;;;;;;6.17;3.80;;;;;;;9.32;100.00;95083.53;5072274;28;20230;-59
2022/04/13 04:33:34;;;;;;;10.67;4.33;;;;;;;9.33;100.00;95082.34;5055618;28;20212;-57
2022/04/13 04:35:59;;;;;;;6.60;4.27;;;;;;;9.52;100.00;95078.31;5055719;28;20203;-58
2022/04/13 04:38:26;;;;;;;8.63;4.53;;;;;;;9.55;100.00;95089.16;5072605;28;20252;-58
2022/04/13 04:40:52;;;;;;;8.93;4.67;;;;;;;9.38;100.00;95084.66;5052221;28;20229;-58
2022/04/13 04:43:17;;;;;;;6.17;4.07;;;;;;;9.49;100.00;95093.53;5035566;28;20238;-60
2022/04/13 04:45:43;;;;;;;7.07;4.40;;;;;;;9.53;100.00;95086.09;5035623;28;20254;-58
2022/04/13 04:48:08;;;;;;;9.57;4.47;;;;;;;9.55;100.00;95089.16;5052042;28;20189;-58
2022/04/13 04:50:35;;;;;;;6.97;4.47;;;;;;;9.65;100.00;95088.28;5035607;28;20229;-58
2022/04/13 04:53:00;;;;;;;10.33;4.63;;;;;;;9.84;100.00;95092.41;5034263;28;20232;-59
2022/04/13 04:55:26;;;;;;;7.47;4.40;;;;;;;9.93;100.00;95093.47;5035541;28;20191;-58
2022/04/13 04:57:51;;;;;;;10.67;4.63;;;;;;;10.05;100.00;95101.16;5052065;28;20211;-58
2022/04/13 05:00:19;;;;;;;8.70;4.90;;;;;;;10.14;100.00;95098.69;5035744;28;20191;-62
2022/04/13 05:02:52;;;;;;;10.10;4.70;;;;;;;10.25;100.00;95103.28;5068173;28;20211;-57
2022/04/13 05:05:19;;;;;;;7.27;4.60;;;;;;;10.43;100.00;95103.81;5075462;28;20231;-58
2022/04/13 05:07:44;;;;;;;9.37;4.93;;;;;;;10.56;100.00;95107.56;5075287;28;20201;-59
2022/04/13 05:10:11;;;;;;;6.93;4.43;;;;;;;10.71;100.00;95114.41;5075289;28;20188;-60
2022/04/13 05:12:44;;;;;;;11.37;4.73;;;;;;;10.84;100.00;95109.91;5075236;28;20194;-58
2022/04/13 05:15:10;;;;;;;10.43;4.67;;;;;;;11.00;100.00;95121.78;5075320;28;20191;-60
2022/04/13 05:17:37;;;;;;;11.47;4.80;;;;;;;11.21;100.00;95115.22;5079535;28;20562;-59
2022/04/13 05:20:04;;;;;;;5.93;4.60;;;;;;;11.47;100.00;95117.94;5096409;28;20207;-62
2022/04/13 05:22:29;;;;;;;7.60;4.50;;;;;;;11.88;100.00;95114.94;5096265;28;20185;-58
2022/04/13 05:24:54;;;;;;;10.90;4.70;;;;;;;12.22;100.00;95107.25;5096438;28;20259;-58
2022/04/13 05:27:19;;;;;;;15.17;4.80;;;;;;;12.36;100.00;95115.19;5096263;28;20206;-59
2022/04/13 05:29:45;;;;;;;8.53;4.80;;;;;;;12.67;100.00;95116.50;5096115;28;20187;-58
2022/04/13 05:32:10;;;;;;;11.20;5.07;;;;;;;12.80;100.00;95114.69;5096317;28;20285;-59
2022/04/13 05:34:36;;;;;;;8.40;4.07;;;;;;;12.97;100.00;95121.75;5096350;28;20206;-58
2022/04/13 05:37:01;;;;;;;10.53;4.97;;;;;;;13.30;97.53;95109.69;5096519;28;20205;-57
2022/04/13 05:39:26;;;;;;;9.27;4.50;;;;;;;13.32;97.24;95107.25;5096746;28;20199;-56
2022/04/13 05:41:52;;;;;;;9.27;4.50;;;;;;;13.58;93.54;95108.97;5096356;28;20180;-58
2022/04/13 05:44:17;;;;;;;10.00;4.50;;;;;;;13.75;92.15;95113.28;5096379;28;20237;-57
2022/04/13 05:46:42;;;;;;;9.10;4.60;;;;;;;14.55;88.63;95121.38;5096166;28;20188;-58
2022/04/13 05:49:07;;;;;;;9.90;5.13;;;;;;;15.03;84.33;95118.41;5096278;28;20184;-58
2022/04/13 05:51:33;;;;;;;12.43;6.50;;;;;;;15.38;82.17;95122.88;5095895;28;20179;-57
2022/04/13 05:53:58;;;;;;;11.00;5.27;;;;;;;15.54;79.55;95122.75;5096342;28;20209;-58
2022/04/13 05:56:23;;;;;;;8.87;4.97;;;;;;;15.45;79.38;95122.63;5095586;28;20212;-58
2022/04/13 05:58:49;;;;;;;8.90;4.87;;;;;;;15.76;78.55;95131.84;5095782;28;20184;-59
2022/04/13 06:01:14;;;;;;;9.63;5.00;;;;;;;15.62;77.94;95137.81;5095751;28;20212;-60
2022/04/13 06:03:39;;;;;;;8.87;4.60;;;;;;;15.68;77.10;95136.06;5095853;28;20218;-59
2022/04/13 06:06:05;;;;;;;10.73;4.80;;;;;;;15.75;76.52;95141.34;5095865;28;20225;-62
2022/04/13 06:08:30;;;;;;;9.47;4.43;;;;;;;15.70;77.20;95146.63;5096068;28;20228;-59
2022/04/13 06:10:55;;;;;;;7.33;4.23;;;;;;;15.78;77.31;95151.44;5096068;28;20199;-59
2022/04/13 06:13:20;;;;;;;9.70;4.80;;;;;;;15.87;76.75;95159.81;5095727;28;20190;-61
2022/04/13 06:15:46;;;;;;;9.87;4.60;;;;;;;16.17;76.50;95156.47;5095713;28;20207;-60
2022/04/13 06:18:12;;;;;;;6.23;4.87;;;;;;;16.29;75.15;95146.63;5095586;28;20186;-54
2022/04/13 06:20:37;;;;;;;11.70;4.70;;;;;;;16.65;73.75;95152.47;5095389;28;20187;-54
2022/04/13 06:23:02;;;;;;;9.87;4.60;;;;;;;16.78;73.05;95155.19;5095415;28;20215;-52
2022/04/13 06:25:28;;;;;;;7.77;5.20;;;;;;;16.86;72.91;95153.69;5095425;28;20214;-53
2022/04/13 06:27:53;;;;;;;10.20;6.50;;;;;;;16.92;72.07;95154.63;5096251;28;20281;-53
2022/04/13 06:30:19;;;;;;;9.30;4.77;;;;;;;17.20;71.14;95159.91;5114237;28;20193;-53
2022/04/13 06:32:45;;;;;;;10.57;5.23;;;;;;;17.73;68.93;95153.13;5096332;28;20184;-54
2022/04/13 06:35:13;;;;;;;11.00;4.50;;;;;;;17.98;68.05;95152.13;5096340;28;20203;-57
2022/04/13 06:37:40;;;;;;;8.17;4.70;;;;;;;18.58;67.20;95156.69;5096391;28;20192;-62
2022/04/13 06:40:07;;;;;;;9.20;4.80;;;;;;;18.99;64.52;95149.78;5096620;28;20191;-66
2022/04/13 06:42:33;;;;;;;9.70;4.83;;;;;;;19.73;60.68;95149.91;5096250;28;20247;-63
2022/04/13 06:44:59;;;;;;;7.93;4.70;;;;;;;19.59;59.63;95149.81;5095868;28;20171;-70
2022/04/13 06:47:25;;;;;;;9.37;4.93;;;;;;;20.05;59.23;95149.16;5095659;28;20217;-67
2022/04/13 06:49:50;;;;;;;9.77;4.90;;;;;;;20.90;56.49;95148.44;5095439;28;20176;-66
2022/04/13 06:52:16;;;;;;;14.13;5.30;;;;;;;21.61;54.20;95149.75;5095994;28;20203;-49
2022/04/13 06:54:42;;;;;;;10.60;4.50;;;;;;;21.82;51.43;95143.03;5096131;28;20179;-57
2022/04/13 06:57:07;;;;;;;8.77;4.70;;;;;;;22.09;51.17;95144.69;5078938;28;20236;-69
2022/04/13 06:59:32;;;;;;;5.30;3.90;;;;;;;22.33;49.85;95146.06;5095727;28;20506;-71
2022/04/13 07:01:58;;;;;;;9.00;5.00;;;;;;;22.75;48.56;95144.84;5095891;28;20180;-72
2022/04/13 07:04:23;;;;;;;11.43;4.80;;;;;;;22.73;47.67;95147.38;5095942;28;20207;-66
2022/04/13 07:06:48;;;;;;;7.43;4.87;;;;;;;23.26;46.37;95140.13;5095988;28;20215;-70
2022/04/13 07:09:14;;;;;;;8.27;4.43;;;;;;;23.94;44.82;95148.63;5095969;28;20271;-70
2022/04/13 07:11:39;;;;;;;7.27;4.40;;;;;;;24.03;44.74;95140.81;5095847;28;20193;-72
2022/04/13 07:14:05;;;;;;;6.90;4.20;;;;;;;24.38;42.74;95143.34;5095908;28;20191;-50
2022/04/13 07:16:30;;;;;;;8.47;4.43;;;;;;;23.61;44.28;95151.88;5095046;28;20199;-53
2022/04/13 07:18:55;;;;;;;8.03;4.50;;;;;;;24.40;42.79;95143.63;5095890;28;20175;-52
2022/04/13 07:21:21;;;;;;;7.00;4.20;;;;;;;25.19;41.72;95139.38;5095670;28;20183;-54
2022/04/13 07:23:46;;;;;;;7.23;4.10;;;;;;;25.53;40.86;95145.81;5095440;28;20253;-50
2022/04/13 07:26:12;;;;;;;7.77;3.90;;;;;;;26.40;39.16;95155.50;5095545;28;20252;-52
2022/04/13 07:28:37;;;;;;;6.47;3.73;;;;;;;27.46;37.61;95143.41;5095564;28;20180;-53
2022/04/13 07:31:04;;;;;;;5.53;3.77;;;;;;;27.97;36.45;95148.16;5095315;28;20184;-57
2022/04/13 07:33:29;;;;;;;7.23;3.90;;;;;;;27.61;36.08;95154.28;5095296;28;20229;-51
2022/04/13 07:35:54;;;;;;;5.80;3.80;;;;;;;28.27;35.34;95160.16;5094305;28;20607;-53
2022/04/13 07:38:20;;;;;;;9.57;4.17;;;;;;;28.33;34.76;95145.31;5094610;28;20279;-47
2022/04/13 07:40:45;;;;;;;6.40;4.00;;;;;;;28.14;34.98;95151.59;5094764;28;20191;-50
2022/04/13 07:43:11;;;;;;;5.73;3.40;;;;;;;28.35;35.25;95154.72;5095465;28;20207;-52
2022/04/13 07:45:36;;;;;;;6.27;3.67;;;;;;;27.66;35.31;95157.06;5094704;28;20251;-54
2022/04/13 07:48:01;;;;;;;5.07;3.40;;;;;;;28.05;34.79;95149.09;5094338;28;20191;-58
2022/04/13 07:50:26;;;;;;;8.00;3.77;;;;;;;28.72;33.29;95154.13;5094359;28;20198;-49
2022/04/13 07:52:52;;;;;;;8.90;5.90;;;;;;;28.81;33.77;95150.97;5094426;28;20188;-65
2022/04/13 07:55:17;;;;;;;5.70;3.53;;;;;;;29.52;33.33;95152.09;5094096;28;20187;-68
2022/04/13 07:57:42;;;;;;;7.90;3.70;;;;;;;29.50;32.38;95165.97;5094450;28;20191;-68
2022/04/13 08:00:10;;;;;;;5.87;3.63;;;;;;;29.88;31.21;95164.66;5094157;28;20187;-66
2022/04/13 08:02:36;;;;;;;6.63;3.53;;;;;;;29.53;32.98;95154.38;5093896;28;20309;-66
2022/04/13 08:05:02;;;;;;;4.77;3.67;;;;;;;28.38;33.74;95159.31;5093986;28;20183;-71
2022/04/13 08:07:27;;;;;;;9.43;3.67;;;;;;;28.92;33.55;95156.47;5094261;28;20561;-56
2022/04/13 08:09:52;;;;;;;3.93;3.30;;;;;;;29.53;32.02;95159.28;5094294;28;20183;-60
2022/04/13 08:12:18;;;;;;;5.27;3.67;;;;;;;29.38;31.96;95158.94;5094350;28;20270;-60
2022/04/13 08:14:46;;;;;;;6.47;3.70;;;;;;;29.68;31.42;95156.78;5094050;28;20192;-59
2022/04/13 08:17:12;;;;;;;6.13;3.20;;;;;;;28.91;31.98;95163.38;5094225;28;20267;-56
2022/04/13 08:19:38;;;;;;;5.67;3.13;;;;;;;28.96;31.96;95156.91;5093803;28;20663;-60
2022/04/13 08:22:03;;;;;;;4.57;3.90;;;;;;;28.81;31.85;95165.03;5094230;28;20179;-59
2022/04/13 08:24:29;;;;;;;6.13;3.20;;;;;;;29.79;31.09;95160.19;5093740;28;20204;-61
2022/04/13 08:26:54;;;;;;;6.30;3.50;;;;;;;30.47;29.88;95167.81;5095218;28;20183;-65
2022/04/13 08:29:19;;;;;;;4.77;2.77;;;;;;;30.10;30.20;95162.25;5097695;28;20265;-53
2022/04/13 08:31:45;;;;;;;6.18;3.00;;;;;;;30.10;30.17;95167.91;5097711;28;20192;-54
2022/04/13 08:34:10;;;;;;;5.30;2.70;;;;;;;30.21;30.14;95169.78;5097402;28;20196;-53
2022/04/13 08:36:35;;;;;;;6.38;2.85;;;;;;;29.80;30.10;95169.41;5097258;28;20270;-55
2022/04/13 08:39:01;;;;;;;5.32;2.75;;;;;;;30.53;29.64;95173.34;5097533;28;20290;-55
2022/04/13 08:41:49;;;;;;;4.87;2.53;;;;;;;29.95;29.68;95181.72;5097597;28;20191;-57
2022/04/13 08:44:25;;;;;;;4.83;2.90;;;;;;;30.71;28.99;95170.44;5098052;28;20208;-57
2022/04/13 08:46:55;;;;;;;7.03;3.42;;;;;;;29.79;29.77;95177.06;5098179;28;20184;-61
2022/04/13 08:49:21;;;;;;;5.78;2.42;;;;;;;30.18;29.06;95173.69;5097794;28;20191;-60
2022/04/13 08:51:49;;;;;;;3.42;2.67;;;;;;;30.40;30.42;95173.31;5098007;28;20244;-62
2022/04/13 08:54:19;;;;;;;6.68;4.00;;;;;;;30.48;29.81;95179.84;5098347;28;20195;-67
2022/04/13 08:56:48;;;;;;;8.38;3.58;;;;;;;31.11;31.37;95183.28;5097832;28;20184;-62
2022/04/13 08:59:38;;;;;;;2.72;2.08;;;;;;;30.96;28.18;95179.50;5098218;28;20180;-62
2022/04/13 09:02:32;;;;;;;3.35;2.22;;;;;;;30.23;28.94;95178.47;5095994;28;20192;-62
2022/04/13 09:05:00;;;;;;;3.25;2.10;;;;;;;30.67;28.41;95174.88;5096781;28;20203;-58
2022/04/13 09:07:31;;;;;;;5.80;2.50;;;;;;;30.45;28.78;95176.03;5097705;28;20188;-60
2022/04/13 09:10:00;;;;;;;4.25;2.47;;;;;;;30.14;28.93;95178.84;5096880;28;20208;-61
2022/04/13 09:12:30;;;;;;;3.60;2.45;;;;;;;31.07;28.70;95179.28;5096420;28;20198;-60
2022/04/13 09:14:57;;;;;;;6.63;3.05;;;;;;;30.83;28.72;95176.66;5096882;28;20164;-59
2022/04/13 09:17:22;;;;;;;3.33;2.30;;;;;;;30.95;28.00;95169.50;5096795;28;20188;-59
2022/04/13 09:19:48;;;;;;;4.05;2.67;;;;;;;30.73;28.73;95178.38;5096956;28;20195;-60
2022/04/13 09:22:15;;;;;;;7.68;2.33;;;;;;;31.20;27.35;95176.44;5096717;28;20548;-61
2022/04/13 09:24:42;;;;;;;2.55;2.20;;;;;;;31.91;27.01;95182.66;5096958;28;20231;-55
2022/04/13 09:27:09;;;;;;;3.17;2.30;;;;;;;31.48;27.47;95185.13;5096766;28;20172;-57
2022/04/13 09:29:35;;;;;;;6.18;3.70;;;;;;;31.93;27.50;95180.03;5096624;28;20229;-57
2022/04/13 09:32:00;;;;;;;3.28;2.78;;;;;;;31.41;27.53;95179.38;5096373;28;20633;-56
2022/04/13 09:34:25;;;;;;;5.50;2.30;;;;;;;31.17;28.17;95180.34;5096437;28;20214;-57
2022/04/13 09:36:52;;;;;;;6.65;4.28;;;;;;;30.49;28.31;95181.38;5096434;28;20192;-54
2022/04/13 09:39:19;;;;;;;2.90;2.70;;;;;;;30.68;27.85;95182.03;5095556;28;20176;-58
2022/04/13 09:41:44;;;;;;;3.28;2.60;;;;;;;29.98;28.97;95179.88;5096033;28;20185;-60
2022/04/13 09:44:14;;;;;;;4.30;2.60;;;;;;;30.93;27.71;95177.75;5114294;28;20196;-60
2022/04/13 09:46:41;;;;;;;3.67;3.05;;;;;;;31.89;27.48;95173.94;5096344;28;20183;-59
2022/04/13 09:49:07;;;;;;;3.97;2.55;;;;;;;30.51;28.36;95182.34;5096194;28;20184;-59
2022/04/13 09:51:46;;;;;;;5.75;3.22;;;;;;;30.52;28.67;95169.00;5095983;28;20184;-59
2022/04/13 09:54:12;;;;;;;5.93;3.40;;;;;;;29.93;29.37;95189.19;5096386;28;20190;-59
2022/04/13 09:56:46;;;;;;;7.07;3.97;;;;;;;30.62;28.84;95172.91;5096233;28;20180;-55
2022/04/13 09:59:23;;;;;;;5.75;3.83;;;;;;;31.77;27.97;95181.16;5095920;28;20179;-56
2022/04/13 10:01:49;;;;;;;5.30;4.10;;;;;;;30.80;28.88;95180.56;5096103;28;20188;-56
2022/04/13 10:04:29;;;;;;;10.23;4.47;;;;;;;31.85;28.21;95182.00;5095567;28;20287;-52
2022/04/13 10:06:55;;;;;;;8.32;5.22;;;;;;;31.73;27.96;95183.53;5095836;28;20191;-53
2022/04/13 10:09:22;;;;;;;4.82;4.30;;;;;;;31.94;27.69;95181.53;5095913;28;20184;-54
2022/04/13 10:12:04;;;;;;;6.45;4.30;;;;;;;31.83;29.64;95178.97;5095778;28;20180;-65
2022/04/13 10:14:30;;;;;;;4.35;3.92;;;;;;;32.18;28.92;95177.63;5095591;28;20646;-60
2022/04/13 10:17:06;;;;;;;6.97;4.68;;;;;;;32.00;29.11;95179.34;5113890;28;20261;-58
2022/04/13 10:19:31;;;;;;;4.85;4.43;;;;;;;32.35;28.17;95175.97;5095904;28;20175;-60
2022/04/13 10:21:58;;;;;;;5.15;4.63;;;;;;;32.61;28.09;95175.81;5095753;28;20187;-58
2022/04/13 10:24:35;;;;;;;6.55;4.68;;;;;;;32.69;27.87;95176.63;5095161;28;20211;-59
2022/04/13 10:27:03;;;;;;;7.28;5.85;;;;;;;32.12;29.06;95174.94;5095571;28;20176;-61
2022/04/13 10:29:30;;;;;;;8.50;5.93;;;;;;;31.17;30.01;95177.50;5095518;28;20186;-59
2022/04/13 10:32:03;;;;;;;9.73;6.22;;;;;;;32.09;29.26;95164.75;5095696;28;20219;-59
2022/04/13 10:34:31;;;;;;;7.90;5.43;;;;;;;31.57;28.80;95167.72;5095755;28;20274;-58
2022/04/13 10:36:57;;;;;;;9.23;6.30;;;;;;;30.85;29.43;95174.06;5095451;28;20188;-62
2022/04/13 10:39:22;;;;;;;9.15;6.28;;;;;;;30.21;30.31;95172.59;5095874;28;20183;-59
2022/04/13 10:41:48;;;;;;;9.50;6.45;;;;;;;30.37;30.08;95169.50;5096318;28;20267;-59
2022/04/13 10:44:21;;;;;;;8.25;6.45;;;;;;;30.42;30.77;95170.72;5096351;28;20236;-59
2022/04/13 10:46:48;;;;;;;8.27;6.10;;;;;;;30.64;30.44;95159.03;5096428;28;20282;-60
2022/04/13 10:49:21;;;;;;;9.25;6.63;;;;;;;30.83;30.08;95159.72;5096342;28;20188;-60
2022/04/13 10:51:50;;;;;;;9.18;7.43;;;;;;;29.44;31.59;95157.59;5094979;28;20186;-58
2022/04/13 10:54:18;;;;;;;9.60;8.00;;;;;;;28.60;32.99;95152.72;5096150;28;20187;-59
2022/04/13 10:56:45;;;;;;;11.68;8.13;;;;;;;28.58;33.73;95160.94;5094967;28;20180;-60
2022/04/13 10:59:39;;;;;;;10.37;8.33;;;;;;;29.61;32.92;95158.13;5095247;28;20210;-60
2022/04/13 11:02:33;;;;;;;9.13;8.20;;;;;;;30.04;31.74;95160.84;5095626;28;20236;-60
2022/04/13 11:04:58;;;;;;;8.13;7.30;;;;;;;28.84;32.71;95161.16;5095184;28;20215;-59
2022/04/13 11:07:25;;;;;;;7.70;6.97;;;;;;;29.69;32.46;95159.06;5095759;28;20180;-61
2022/04/13 11:09:56;;;;;;;8.70;7.90;;;;;;;29.33;32.17;95156.97;5095584;28;20558;-60
2022/04/13 11:12:23;;;;;;;10.20;7.60;;;;;;;28.89;32.79;95163.13;5094911;28;20183;-57
2022/04/13 11:14:58;;;;;;;9.20;8.13;;;;;;;29.37;31.90;95158.22;5094925;28;20187;-60
2022/04/13 11:17:27;;;;;;;9.17;7.93;;;;;;;29.84;31.93;95155.75;5094969;28;20191;-59
2022/04/13 11:20:16;;;;;;;8.73;7.47;;;;;;;30.19;31.88;95152.66;5094656;28;20215;-62
2022/04/13 11:22:42;;;;;;;8.50;7.60;;;;;;;30.28;31.52;95155.06;5094639;28;20227;-62
2022/04/13 11:25:07;;;;;;;8.90;8.10;;;;;;;29.69;31.88;95152.66;5095403;28;20262;-62
2022/04/13 11:27:50;;;;;;;10.57;7.90;;;;;;;28.82;32.92;95158.09;5095394;28;20659;-63
2022/04/13 11:30:16;;;;;;;8.43;7.70;;;;;;;28.45;33.71;95152.38;5095538;28;20192;-57